Time;durP1;ratioP1;P1;durP2;ratioP2;P2;SDS_P1;SDS_P2;PMS_P1;PMS_P2;Temp;Humidity;BMP_temperature;BMP_pressure;BME280_temperature;BME280_humidity;BME280_pressure;Samples;Min_cycle;Max_cycle;Signal;HPM_P1;HPM_P2
2020/12/03 00:01:13;;;;;;;37.58;24.18;;;;;;;-0.15;76.05;100802.06;1659389;84;25874;-79
2020/12/03 00:03:50;;;;;;;38.90;23.52;;;;;;;-0.12;76.11;100800.59;1660426;84;25863;-79
2020/12/03 00:06:33;;;;;;;38.63;23.70;;;;;;;-0.08;76.11;100798.70;1660644;84;25690;-80
2020/12/03 00:09:13;;;;;;;40.05;24.92;;;;;;;-0.10;76.00;100796.20;1660850;84;26560;-79
2020/12/03 00:11:49;;;;;;;37.17;23.40;;;;;;;-0.10;75.99;100801.81;1664420;84;26121;-79
2020/12/03 00:14:16;;;;;;;36.90;22.40;;;;;;;-0.14;75.85;100804.16;1664704;84;25784;-80
2020/12/03 00:16:44;;;;;;;38.50;24.82;;;;;;;-0.20;75.86;100804.05;1665179;83;25812;-80
2020/12/03 00:19:13;;;;;;;42.17;24.80;;;;;;;-0.23;75.99;100806.33;1662754;84;25925;-80
2020/12/03 00:21:58;;;;;;;43.87;24.90;;;;;;;-0.19;76.09;100816.43;1664941;83;26015;-80
2020/12/03 00:24:31;;;;;;;37.13;22.37;;;;;;;-0.18;76.18;100821.49;1667046;84;26654;-80
2020/12/03 00:27:10;;;;;;;40.30;24.63;;;;;;;-0.13;76.27;100827.67;1663738;84;25840;-79
2020/12/03 00:29:38;;;;;;;39.30;24.98;;;;;;;-0.08;76.33;100820.55;1655196;84;25877;-80
2020/12/03 00:32:05;;;;;;;38.65;24.65;;;;;;;-0.07;76.16;100819.63;1664519;84;25853;-79
2020/12/03 00:34:33;;;;;;;37.08;23.42;;;;;;;-0.09;76.07;100825.30;1666728;84;25853;-79
2020/12/03 00:36:59;;;;;;;35.40;22.55;;;;;;;-0.14;76.02;100824.25;1663590;84;25728;-79
2020/12/03 00:39:26;;;;;;;35.15;23.65;;;;;;;-0.11;76.12;100823.25;1665794;83;25860;-79
2020/12/03 00:41:54;;;;;;;41.08;23.77;;;;;;;-0.10;76.10;100829.61;1665265;84;25793;-79
2020/12/03 00:44:22;;;;;;;35.80;23.22;;;;;;;-0.10;76.10;100839.06;1665290;84;25772;-79
2020/12/03 00:46:49;;;;;;;37.63;23.05;;;;;;;-0.10;76.10;100841.63;1664319;84;26526;-79
2020/12/03 00:49:17;;;;;;;38.48;23.32;;;;;;;-0.08;76.08;100842.38;1662817;84;26314;-79
2020/12/03 00:51:50;;;;;;;37.95;22.87;;;;;;;-0.09;76.05;100845.38;1627503;85;25762;-79
2020/12/03 00:54:17;;;;;;;31.95;21.73;;;;;;;-0.08;76.04;100843.67;1649488;84;26337;-79
2020/12/03 00:56:48;;;;;;;34.48;22.98;;;;;;;-0.08;76.10;100843.67;1665757;84;25742;-79
2020/12/03 00:59:16;;;;;;;36.63;22.60;;;;;;;-0.04;76.13;100848.53;1649085;85;25835;-79
2020/12/03 01:01:44;;;;;;;34.15;21.73;;;;;;;-0.05;76.08;100851.20;1633506;85;25884;-79
2020/12/03 01:04:10;;;;;;;32.95;21.27;;;;;;;-0.03;76.17;100842.50;1663784;84;26512;-78
2020/12/03 01:06:37;;;;;;;32.20;20.65;;;;;;;-0.01;76.11;100841.11;1664001;84;26496;-79
2020/12/03 01:09:04;;;;;;;34.33;21.93;;;;;;;-0.01;75.93;100838.54;1648953;84;25818;-78
2020/12/03 01:11:30;;;;;;;31.48;20.00;;;;;;;-0.06;75.92;100831.54;1642780;85;25887;-78
2020/12/03 01:13:56;;;;;;;30.85;20.10;;;;;;;-0.03;75.99;100818.52;1666024;84;26349;-79
2020/12/03 01:16:23;;;;;;;33.40;20.45;;;;;;;0.01;75.94;100815.34;1642397;85;25767;-79
2020/12/03 01:18:49;;;;;;;37.03;21.15;;;;;;;-0.04;75.78;100812.56;1663775;84;25795;-78
2020/12/03 01:21:22;;;;;;;33.35;20.97;;;;;;;-0.03;75.82;100803.95;1642372;85;27043;-79
2020/12/03 01:23:50;;;;;;;33.95;21.25;;;;;;;0.01;75.90;100798.18;1661880;84;26188;-79
2020/12/03 01:26:18;;;;;;;34.88;21.87;;;;;;;0.04;75.94;100799.29;1663308;84;25966;-79
2020/12/03 01:28:47;;;;;;;33.65;20.50;;;;;;;0.06;75.88;100789.76;1663471;84;25715;-79
2020/12/03 01:31:13;;;;;;;32.83;20.40;;;;;;;0.09;75.92;100786.19;1664018;84;25714;-79
2020/12/03 01:33:40;;;;;;;36.30;22.60;;;;;;;0.12;75.75;100796.29;1661707;84;25950;-79
2020/12/03 01:36:08;;;;;;;30.72;18.48;;;;;;;0.10;75.64;100790.41;1662412;84;26406;-79
2020/12/03 01:38:35;;;;;;;28.02;18.35;;;;;;;0.08;75.60;100781.52;1662483;84;26748;-79
2020/12/03 01:41:01;;;;;;;28.12;18.17;;;;;;;0.08;75.44;100772.52;1663985;84;25771;-79
2020/12/03 01:43:28;;;;;;;27.77;17.10;;;;;;;0.05;75.30;100776.52;1644462;85;26586;-79
2020/12/03 01:45:59;;;;;;;28.98;18.23;;;;;;;0.02;75.22;100768.98;1663297;84;25807;-79
2020/12/03 01:48:55;;;;;;;26.82;17.70;;;;;;;-0.05;75.19;100763.38;1662360;84;25952;-79
2020/12/03 01:51:32;;;;;;;31.10;18.65;;;;;;;-0.01;75.46;100764.84;1664810;83;25901;-79
2020/12/03 01:54:04;;;;;;;29.45;18.62;;;;;;;0.02;75.37;100747.15;1665041;84;25778;-78
2020/12/03 01:56:41;;;;;;;28.60;19.30;;;;;;;0.04;75.42;100745.33;1663760;84;25911;-78
2020/12/03 01:59:08;;;;;;;26.30;18.23;;;;;;;0.04;75.35;100747.89;1664132;84;25905;-79
2020/12/03 02:01:35;;;;;;;30.02;19.00;;;;;;;0.03;75.29;100743.68;1663382;84;26115;-79
2020/12/03 02:04:03;;;;;;;29.65;18.05;;;;;;;0.05;75.40;100741.83;1668352;84;25944;-78
2020/12/03 02:06:34;;;;;;;26.35;17.27;;;;;;;0.07;75.35;100742.58;1665236;84;25614;-79
2020/12/03 02:09:02;;;;;;;25.12;15.35;;;;;;;0.05;75.14;100736.69;1665655;84;25589;-79
2020/12/03 02:11:28;;;;;;;23.98;16.35;;;;;;;0.03;74.92;100735.13;1661370;84;26369;-79
2020/12/03 02:14:02;;;;;;;24.02;15.85;;;;;;;0.00;74.83;100736.16;1659940;85;26466;-79
2020/12/03 02:16:33;;;;;;;22.30;15.30;;;;;;;-0.04;74.86;100729.52;1620932;85;25915;-78
2020/12/03 02:19:00;;;;;;;20.57;13.50;;;;;;;-0.09;74.57;100724.64;1667265;84;25465;-79
2020/12/03 02:21:26;;;;;;;20.27;14.35;;;;;;;-0.10;74.73;100737.59;1645053;85;26414;-79
2020/12/03 02:23:53;;;;;;;25.32;16.35;;;;;;;-0.09;74.70;100733.62;1645089;85;25642;-79
2020/12/03 02:26:20;;;;;;;26.75;15.25;;;;;;;-0.11;74.69;100739.77;1666218;84;25462;-79
2020/12/03 02:28:46;;;;;;;24.43;15.10;;;;;;;-0.11;74.77;100740.62;1666646;83;25711;-80
2020/12/03 02:31:29;;;;;;;23.62;15.45;;;;;;;-0.06;74.84;100727.48;1663424;84;25837;-79
2020/12/03 02:33:55;;;;;;;21.05;14.58;;;;;;;-0.06;74.63;100721.89;1663087;84;25804;-79
2020/12/03 02:36:21;;;;;;;23.57;14.63;;;;;;;-0.14;74.53;100720.22;1663859;84;25807;-79
2020/12/03 02:39:42;;;;;;;21.55;15.15;;;;;;;-0.12;74.70;100700.88;1642316;85;26693;-79
2020/12/03 02:42:33;;;;;;;21.90;15.03;;;;;;;-0.10;74.72;100696.48;1664741;84;25763;-79
2020/12/03 02:44:59;;;;;;;24.67;15.00;;;;;;;-0.11;74.78;100694.37;1664273;84;26668;-79
2020/12/03 02:47:26;;;;;;;24.02;15.30;;;;;;;-0.07;74.84;100687.31;1661864;84;25850;-79
2020/12/03 02:49:52;;;;;;;24.90;15.55;;;;;;;-0.05;74.77;100682.45;1664376;84;25826;-79
2020/12/03 02:52:28;;;;;;;25.75;16.55;;;;;;;-0.06;74.73;100676.92;1661928;84;25856;-78
2020/12/03 02:54:55;;;;;;;25.65;17.25;;;;;;;-0.05;74.65;100686.31;1660868;84;26202;-79
2020/12/03 02:57:22;;;;;;;22.27;14.73;;;;;;;-0.10;74.48;100681.06;1642523;85;25888;-79
2020/12/03 02:59:50;;;;;;;29.82;16.80;;;;;;;-0.11;74.54;100676.39;1665573;84;25832;-79
2020/12/03 03:02:17;;;;;;;25.55;16.52;;;;;;;-0.11;74.61;100672.97;1662098;84;26372;-79
2020/12/03 03:04:43;;;;;;;23.73;15.53;;;;;;;-0.10;74.71;100679.32;1661818;84;25753;-79
2020/12/03 03:07:09;;;;;;;24.10;15.03;;;;;;;-0.11;74.58;100676.83;1662772;83;26590;-79
2020/12/03 03:09:36;;;;;;;25.40;16.00;;;;;;;-0.14;74.64;100677.83;1665156;84;25824;-79
2020/12/03 03:12:03;;;;;;;27.73;17.35;;;;;;;-0.13;74.75;100671.80;1660732;84;25892;-79
2020/12/03 03:14:30;;;;;;;23.75;17.02;;;;;;;-0.12;74.82;100676.47;1660535;84;26634;-79
2020/12/03 03:16:56;;;;;;;25.10;15.43;;;;;;;-0.14;74.76;100670.59;1660341;84;25727;-79
2020/12/03 03:19:22;;;;;;;27.00;16.80;;;;;;;-0.11;74.90;100663.98;1658602;84;26357;-79
2020/12/03 03:21:49;;;;;;;24.75;16.17;;;;;;;-0.06;75.00;100659.41;1662439;83;25805;-78
2020/12/03 03:24:15;;;;;;;24.57;16.65;;;;;;;0.00;75.05;100661.64;1659190;84;25825;-79
2020/12/03 03:26:43;;;;;;;29.70;18.62;;;;;;;0.03;74.92;100669.17;1659430;84;26421;-79
2020/12/03 03:29:10;;;;;;;28.30;16.95;;;;;;;0.02;74.77;100662.36;1657675;84;25817;-78
2020/12/03 03:31:36;;;;;;;24.50;15.80;;;;;;;0.02;74.77;100658.97;1658750;84;25922;-79
2020/12/03 03:34:03;;;;;;;24.30;16.73;;;;;;;-0.01;74.71;100655.66;1658790;84;25980;-79
2020/12/03 03:36:30;;;;;;;28.27;18.20;;;;;;;-0.03;74.78;100651.09;1657378;84;25975;-78
2020/12/03 03:38:56;;;;;;;31.90;18.85;;;;;;;0.01;74.92;100650.44;1657921;84;25867;-79
2020/12/03 03:41:23;;;;;;;28.75;17.95;;;;;;;0.04;74.91;100645.11;1660247;84;25745;-79
2020/12/03 03:44:40;;;;;;;28.07;17.60;;;;;;;0.07;74.95;100628.69;1659069;84;25738;-80
2020/12/03 03:47:06;;;;;;;29.20;17.23;;;;;;;0.04;74.66;100616.84;1660368;84;25692;-79
2020/12/03 03:49:33;;;;;;;32.03;19.40;;;;;;;-0.01;74.64;100609.87;1660232;84;25793;-79
2020/12/03 03:51:59;;;;;;;27.05;17.48;;;;;;;0.01;74.71;100605.47;1659546;84;25851;-79
2020/12/03 03:54:25;;;;;;;31.52;19.05;;;;;;;0.01;74.76;100595.20;1658022;84;25790;-79
2020/12/03 03:56:52;;;;;;;26.87;17.50;;;;;;;0.03;74.75;100588.66;1658325;84;26236;-80
2020/12/03 03:59:18;;;;;;;27.82;17.37;;;;;;;-0.01;74.56;100588.03;1658623;84;25469;-79
2020/12/03 04:01:44;;;;;;;28.15;18.35;;;;;;;-0.06;74.53;100593.90;1658740;84;26710;-80
2020/12/03 04:04:11;;;;;;;31.42;18.65;;;;;;;-0.11;74.50;100590.77;1660731;84;25979;-80
2020/12/03 04:06:37;;;;;;;27.85;17.62;;;;;;;-0.17;74.44;100579.12;1663389;84;25812;-80
2020/12/03 04:09:04;;;;;;;31.23;21.25;;;;;;;-0.18;74.56;100580.51;1639348;85;25780;-80
2020/12/03 04:11:31;;;;;;;28.38;18.40;;;;;;;-0.17;74.60;100580.40;1639509;84;25591;-80
2020/12/03 04:14:15;;;;;;;29.72;20.97;;;;;;;-0.17;74.57;100571.88;1640372;85;26606;-79
2020/12/03 04:20:40;;;;;;;33.02;21.48;;;;;;;-0.17;74.55;100576.55;1661521;84;26837;-79
2020/12/03 04:23:07;;;;;;;34.30;20.95;;;;;;;-0.20;74.52;100564.36;1659653;84;25821;-79
2020/12/03 04:25:33;;;;;;;34.15;22.48;;;;;;;-0.23;74.57;100570.50;1649105;84;25708;-79
2020/12/03 04:28:00;;;;;;;37.67;24.43;;;;;;;-0.27;74.60;100578.85;1662859;84;25657;-79
2020/12/03 04:30:26;;;;;;;32.58;21.60;;;;;;;-0.29;74.62;100587.09;1660500;84;25787;-79
2020/12/03 04:32:54;;;;;;;36.98;24.67;;;;;;;-0.31;74.69;100588.09;1657607;84;26417;-79
2020/12/03 04:39:20;;;;;;;38.87;25.20;;;;;;;-0.30;74.90;100591.88;1661761;84;25786;-79
2020/12/03 04:41:48;;;;;;;41.10;27.98;;;;;;;-0.33;75.05;100579.22;1660994;84;26201;-79
2020/12/03 04:44:37;;;;;;;38.40;25.45;;;;;;;-0.30;74.93;100575.61;1659103;84;25682;-79
2020/12/03 04:47:36;;;;;;;43.23;26.75;;;;;;;-0.25;74.98;100562.90;1660096;84;26133;-79
2020/12/03 04:50:32;;;;;;;35.38;23.40;;;;;;;-0.25;74.91;100559.05;1660235;84;25736;-79
2020/12/03 04:53:29;;;;;;;40.70;27.02;;;;;;;-0.24;74.86;100559.41;1671655;83;25910;-79
2020/12/03 04:56:04;;;;;;;42.80;27.90;;;;;;;-0.28;74.82;100560.48;1668720;83;26550;-79
2020/12/03 04:58:50;;;;;;;41.98;27.45;;;;;;;-0.28;74.82;100566.09;1671468;83;26667;-79
2020/12/03 05:01:52;;;;;;;42.70;28.45;;;;;;;-0.30;74.82;100573.05;1671847;83;26824;-79
2020/12/03 05:04:26;;;;;;;45.40;28.77;;;;;;;-0.31;74.81;100567.55;1670026;83;26700;-79
2020/12/03 05:07:02;;;;;;;42.58;27.77;;;;;;;-0.29;74.87;100581.14;1670554;83;25882;-78
2020/12/03 05:10:00;;;;;;;45.43;29.50;;;;;;;-0.32;74.78;100586.45;1672755;83;25928;-78
2020/12/03 05:12:40;;;;;;;39.95;26.82;;;;;;;-0.31;74.91;100595.34;1670580;83;25863;-78
2020/12/03 05:15:26;;;;;;;42.30;27.73;;;;;;;-0.27;74.94;100593.44;1675307;83;25885;-78
2020/12/03 05:18:19;;;;;;;40.65;26.42;;;;;;;-0.25;74.83;100596.72;1674192;83;25982;-78
2020/12/03 05:20:51;;;;;;;40.00;25.82;;;;;;;-0.26;74.89;100582.23;1671846;83;25926;-79
2020/12/03 05:23:26;;;;;;;39.78;25.90;;;;;;;-0.29;74.86;100592.23;1664326;84;26613;-78
2020/12/03 05:25:54;;;;;;;39.60;25.52;;;;;;;-0.31;74.80;100587.63;1663955;84;25653;-79
2020/12/03 05:28:26;;;;;;;39.80;26.37;;;;;;;-0.30;74.91;100580.32;1664941;84;26737;-78
2020/12/03 05:30:56;;;;;;;36.75;24.80;;;;;;;-0.29;74.90;100572.97;1633068;85;26045;-79
2020/12/03 05:33:23;;;;;;;40.15;24.82;;;;;;;-0.27;74.97;100572.43;1608366;85;25546;-79
2020/12/03 05:35:51;;;;;;;33.95;21.35;;;;;;;-0.27;74.95;100569.86;1632418;85;25832;-78
2020/12/03 05:38:24;;;;;;;32.40;21.25;;;;;;;-0.29;74.95;100561.41;1637364;85;25864;-78
2020/12/03 05:41:04;;;;;;;35.50;22.22;;;;;;;-0.27;75.06;100562.16;1634755;85;25341;-78
2020/12/03 05:43:32;;;;;;;34.48;22.73;;;;;;;-0.25;75.05;100554.34;1634964;85;25910;-79
2020/12/03 05:46:03;;;;;;;31.97;20.90;;;;;;;-0.23;75.03;100545.63;1636560;85;25659;-78
2020/12/03 05:48:30;;;;;;;32.20;20.97;;;;;;;-0.23;75.00;100549.48;1635257;85;25777;-79
2020/12/03 05:50:56;;;;;;;31.40;20.82;;;;;;;-0.23;74.97;100553.34;1613152;85;26711;-79
2020/12/03 05:53:26;;;;;;;30.62;19.73;;;;;;;-0.28;74.91;100543.80;1635824;85;25958;-79
2020/12/03 05:55:59;;;;;;;30.45;18.75;;;;;;;-0.30;74.95;100538.37;1633669;85;26798;-79
2020/12/03 05:58:32;;;;;;;28.10;19.75;;;;;;;-0.30;75.01;100526.82;1634858;85;25583;-79
2020/12/03 06:01:19;;;;;;;31.02;19.67;;;;;;;-0.29;75.07;100521.61;1655293;84;25867;-79
2020/12/03 06:04:25;;;;;;;29.07;19.85;;;;;;;-0.27;75.02;100521.53;1649184;85;26249;-80
2020/12/03 06:07:06;;;;;;;39.65;23.35;;;;;;;-0.28;75.04;100527.09;1600230;85;26046;-79
2020/12/03 06:09:42;;;;;;;35.70;21.87;;;;;;;-0.29;75.05;100519.04;1619612;84;37052;-79
2020/12/03 06:12:28;;;;;;;39.85;23.18;;;;;;;-0.30;75.05;100512.70;1593204;87;25815;-79
2020/12/03 06:15:21;;;;;;;28.20;17.60;;;;;;;-0.35;74.92;100515.56;1619317;84;25745;-80
2020/12/03 06:18:01;;;;;;;31.95;19.20;;;;;;;-0.39;75.04;100508.94;1619598;84;26452;-80
2020/12/03 06:20:58;;;;;;;;;;;;;;;-0.40;75.15;100510.33;1622883;84;25842;-80
2020/12/03 06:23:51;;;;;;;29.72;19.65;;;;;;;-0.41;75.14;100510.80;1593681;85;25994;-80
2020/12/03 06:26:44;;;;;;;32.03;19.35;;;;;;;-0.48;75.19;100513.34;1621988;84;25899;-79
2020/12/03 06:29:42;;;;;;;32.42;19.87;;;;;;;-0.52;75.17;100502.45;1621030;84;25905;-79
2020/12/03 06:32:36;;;;;;;30.10;18.62;;;;;;;-0.56;75.29;100500.95;1620994;84;25668;-79
2020/12/03 06:35:29;;;;;;;33.55;19.52;;;;;;;-0.55;75.42;100490.23;1619797;84;26655;-79
2020/12/03 06:38:35;;;;;;;29.72;18.82;;;;;;;-0.59;75.33;100493.91;1620484;84;26606;-79
2020/12/03 06:41:40;;;;;;;33.02;20.05;;;;;;;-0.61;75.41;100499.12;1632029;84;25540;-79
2020/12/03 06:44:40;;;;;;;30.08;19.98;;;;;;;-0.63;75.49;100495.80;1638927;82;25877;-79
2020/12/03 06:47:21;;;;;;;32.70;19.57;;;;;;;-0.64;75.60;100496.73;1639925;82;26481;-79
2020/12/03 06:50:18;;;;;;;30.72;19.70;;;;;;;-0.64;75.65;100501.05;1637171;82;25661;-79
2020/12/03 06:53:44;;;;;;;32.73;19.82;;;;;;;-0.65;75.66;100492.98;1637259;82;26635;-79
2020/12/03 06:56:47;;;;;;;31.17;21.40;;;;;;;-0.69;75.64;100484.63;1635765;84;25855;-79
2020/12/03 06:59:39;;;;;;;33.38;19.57;;;;;;;-0.69;75.69;100487.19;1637318;84;25760;-79
2020/12/03 07:02:58;;;;;;;34.60;20.02;;;;;;;-0.69;75.82;100491.86;1638200;84;26429;-79
2020/12/03 07:05:55;;;;;;;37.00;19.48;;;;;;;-0.71;75.80;100496.28;1647191;82;26377;-80
2020/12/03 07:09:10;;;;;;;36.58;21.37;;;;;;;-0.76;75.78;100498.28;1659714;82;25977;-80
2020/12/03 07:12:00;;;;;;;36.13;22.20;;;;;;;-0.76;75.87;100489.77;1657835;82;25907;-78
2020/12/03 07:14:53;;;;;;;72.90;45.10;;;;;;;-0.74;76.06;100496.46;1658935;82;25841;-79
2020/12/03 07:17:58;;;;;;;124.25;63.83;;;;;;;-0.72;75.97;100511.75;1656508;81;25836;-79
2020/12/03 07:21:02;;;;;;;104.07;59.03;;;;;;;-0.71;76.11;100514.67;1627128;85;25866;-79
2020/12/03 07:23:49;;;;;;;53.98;32.90;;;;;;;-0.67;76.11;100512.31;1596285;87;26018;-80
2020/12/03 07:26:48;;;;;;;43.45;29.87;;;;;;;-0.63;76.10;100511.67;1622019;87;25893;-80
2020/12/03 07:29:22;;;;;;;41.40;26.97;;;;;;;-0.64;76.05;100513.88;1641816;86;25946;-79
2020/12/03 07:31:51;;;;;;;43.28;29.80;;;;;;;-0.61;76.10;100512.41;1640178;86;26405;-79
2020/12/03 07:34:32;;;;;;;35.28;25.37;;;;;;;-0.59;76.09;100517.01;1642857;86;25798;-79
2020/12/03 07:37:03;;;;;;;41.10;28.10;;;;;;;-0.59;76.08;100509.31;1648108;86;25894;-79
2020/12/03 07:39:35;;;;;;;38.60;24.95;;;;;;;-0.61;76.06;100505.53;1636771;86;26169;-79
2020/12/03 07:42:15;;;;;;;37.98;24.55;;;;;;;-0.60;76.13;100501.22;1644136;86;26536;-79
2020/12/03 07:44:50;;;;;;;40.90;21.90;;;;;;;-0.60;76.07;100498.22;1645837;86;25868;-79
2020/12/03 07:47:33;;;;;;;37.60;23.47;;;;;;;-0.58;76.09;100486.56;1646387;86;26290;-79
2020/12/03 07:50:06;;;;;;;36.58;23.98;;;;;;;-0.58;76.11;100478.86;1645951;86;26055;-79
2020/12/03 07:52:36;;;;;;;35.08;21.60;;;;;;;-0.58;76.07;100478.86;1645296;86;25939;-78
2020/12/03 07:55:26;;;;;;;35.55;23.15;;;;;;;-0.57;76.14;100468.98;1606124;88;25789;-78
2020/12/03 07:57:59;;;;;;;33.33;21.50;;;;;;;-0.55;76.25;100465.38;1648795;85;33142;-79
2020/12/03 08:00:46;;;;;;;37.17;23.60;;;;;;;-0.53;76.19;100452.47;1649134;85;25915;-79
2020/12/03 08:03:45;;;;;;;34.63;22.85;;;;;;;-0.52;76.17;100451.11;1612197;87;25765;-79
2020/12/03 08:06:32;;;;;;;39.90;24.40;;;;;;;-0.47;76.20;100450.34;1612097;85;26498;-78
2020/12/03 08:09:07;;;;;;;46.58;28.35;;;;;;;-0.42;76.24;100448.79;1624593;85;25733;-79
2020/12/03 08:11:57;;;;;;;42.23;26.12;;;;;;;-0.37;76.19;100446.77;1635950;85;26042;-79
2020/12/03 08:14:42;;;;;;;44.13;24.75;;;;;;;-0.41;76.00;100441.47;1637476;85;25919;-78
2020/12/03 08:17:22;;;;;;;43.48;26.50;;;;;;;-0.43;76.02;100438.17;1634137;85;25901;-81
2020/12/03 08:20:06;;;;;;;44.40;27.45;;;;;;;-0.42;76.03;100437.70;1628587;85;25784;-79
2020/12/03 08:22:43;;;;;;;42.75;25.25;;;;;;;-0.38;76.06;100437.44;1627724;86;25323;-79
2020/12/03 08:25:26;;;;;;;40.63;24.35;;;;;;;-0.37;75.97;100431.84;1622686;86;25868;-78
2020/12/03 08:27:58;;;;;;;40.52;24.80;;;;;;;-0.39;75.89;100441.36;1621667;86;25640;-79
2020/12/03 08:30:36;;;;;;;45.15;25.20;;;;;;;-0.37;75.96;100435.69;1620217;86;25871;-79
2020/12/03 08:33:12;;;;;;;40.20;25.35;;;;;;;-0.33;76.07;100432.85;1619280;86;25844;-78
2020/12/03 08:35:45;;;;;;;37.88;24.57;;;;;;;-0.32;75.94;100433.20;1625177;86;26088;-78
2020/12/03 08:38:12;;;;;;;39.45;26.12;;;;;;;-0.33;75.80;100439.70;1639233;85;25644;-78
2020/12/03 08:40:40;;;;;;;42.90;24.95;;;;;;;-0.33;75.89;100448.25;1630946;85;25877;-78
2020/12/03 08:43:09;;;;;;;38.05;22.82;;;;;;;-0.31;75.83;100452.81;1639085;85;26315;-77
2020/12/03 08:45:50;;;;;;;40.28;24.23;;;;;;;-0.29;75.82;100447.14;1638023;85;25649;-78
2020/12/03 08:48:21;;;;;;;35.28;23.15;;;;;;;-0.28;75.83;100443.64;1641535;85;26288;-78
2020/12/03 08:50:57;;;;;;;38.30;22.00;;;;;;;-0.23;75.68;100445.94;1625032;85;26514;-78
2020/12/03 08:53:26;;;;;;;40.40;25.77;;;;;;;-0.28;75.66;100449.23;1643336;85;25779;-79
2020/12/03 08:55:52;;;;;;;42.35;25.12;;;;;;;-0.25;75.70;100446.48;1643470;85;26402;-79
2020/12/03 08:58:22;;;;;;;38.83;25.00;;;;;;;-0.20;75.73;100450.87;1644372;85;25970;-79
2020/12/03 09:00:50;;;;;;;;;;;;;;;-0.19;75.70;100459.41;1646099;85;25686;-79
2020/12/03 09:03:19;;;;;;;44.13;25.40;;;;;;;-0.17;75.68;100451.97;1640706;85;25914;-79
2020/12/03 09:05:48;;;;;;;41.55;27.00;;;;;;;-0.14;75.62;100458.67;1640757;85;25689;-79
2020/12/03 09:08:20;;;;;;;44.23;25.77;;;;;;;-0.16;75.46;100462.63;1641470;85;26374;-79
2020/12/03 09:10:49;;;;;;;43.48;27.85;;;;;;;-0.17;75.45;100453.26;1640817;85;25911;-79
2020/12/03 09:13:18;;;;;;;43.95;27.17;;;;;;;-0.17;75.42;100447.30;1642686;85;26349;-79
2020/12/03 09:15:47;;;;;;;43.42;27.67;;;;;;;-0.14;75.51;100449.22;1640932;85;25967;-79
2020/12/03 09:18:14;;;;;;;48.58;29.45;;;;;;;-0.11;75.29;100439.21;1642829;85;25816;-79
2020/12/03 09:20:45;;;;;;;56.50;33.28;;;;;;;-0.18;75.12;100449.05;1635731;85;25855;-79
2020/12/03 09:23:22;;;;;;;55.90;31.87;;;;;;;-0.19;75.26;100449.98;1635000;85;25775;-79
2020/12/03 09:25:48;;;;;;;66.05;37.85;;;;;;;-0.17;75.29;100446.84;1635496;85;25776;-79
2020/12/03 09:28:14;;;;;;;110.72;59.18;;;;;;;-0.15;75.35;100441.16;1636737;85;25713;-79
2020/12/03 09:30:45;;;;;;;80.00;47.03;;;;;;;-0.13;75.25;100434.66;1634655;85;25656;-79
2020/12/03 09:33:17;;;;;;;79.32;42.88;;;;;;;-0.10;75.16;100442.16;1634812;85;25460;-79
2020/12/03 09:35:47;;;;;;;66.90;39.90;;;;;;;-0.10;75.17;100442.98;1636794;85;25840;-79
2020/12/03 09:38:16;;;;;;;68.95;38.83;;;;;;;-0.07;75.19;100443.25;1633773;85;33109;-79
2020/12/03 09:40:48;;;;;;;72.85;41.85;;;;;;;0.00;75.36;100443.25;1635268;85;26279;-78
2020/12/03 09:43:22;;;;;;;64.75;40.00;;;;;;;-0.01;75.12;100438.55;1635192;85;25873;-79
2020/12/03 09:45:57;;;;;;;66.80;40.43;;;;;;;0.06;75.36;100438.19;1635847;85;25913;-79
2020/12/03 09:48:26;;;;;;;76.75;46.10;;;;;;;0.09;75.22;100443.13;1633709;85;25743;-79
2020/12/03 09:50:52;;;;;;;52.17;32.25;;;;;;;0.08;74.96;100441.03;1637529;85;26068;-79
2020/12/03 09:53:21;;;;;;;54.55;35.20;;;;;;;0.04;74.56;100418.19;1633146;85;26625;-79
2020/12/03 09:55:48;;;;;;;48.87;32.73;;;;;;;-0.07;74.66;100418.39;1632144;85;25855;-79
2020/12/03 09:58:19;;;;;;;48.02;32.20;;;;;;;-0.11;74.53;100413.52;1635022;85;25681;-78
2020/12/03 10:00:50;;;;;;;50.03;32.05;;;;;;;-0.16;74.57;100406.13;1622024;85;26141;-79
2020/12/03 10:03:23;;;;;;;;;;;;;;;-0.16;74.69;100400.98;1640581;85;25690;-79
2020/12/03 10:06:03;;;;;;;46.33;32.03;;;;;;;-0.14;74.80;100382.43;1634375;85;26416;-80
2020/12/03 10:09:11;;;;;;;53.83;36.65;;;;;;;-0.09;74.87;100375.27;1636290;85;25857;-79
2020/12/03 10:11:52;;;;;;;60.83;37.15;;;;;;;-0.05;75.02;100377.20;1634094;85;26513;-79
2020/12/03 10:14:44;;;;;;;56.37;38.30;;;;;;;0.08;75.12;100380.65;1633747;85;25627;-79
2020/12/03 10:17:15;;;;;;;63.58;37.93;;;;;;;0.16;75.07;100375.00;1635640;85;25881;-78
2020/12/03 10:19:43;;;;;;;57.85;35.90;;;;;;;0.17;74.61;100380.52;1642127;84;26338;-78
2020/12/03 10:22:22;;;;;;;61.37;36.65;;;;;;;0.15;74.52;100370.79;1658406;84;25780;-79
2020/12/03 10:25:16;;;;;;;60.33;37.48;;;;;;;0.14;74.57;100381.53;1581681;88;25573;-79
2020/12/03 10:28:03;;;;;;;58.98;36.83;;;;;;;0.15;74.48;100368.22;1580848;88;25531;-79
2020/12/03 10:30:38;;;;;;;57.67;37.38;;;;;;;0.16;74.53;100363.43;1580656;88;25818;-78
2020/12/03 10:33:16;;;;;;;55.35;35.78;;;;;;;0.19;74.50;100367.09;1580379;88;25817;-79
2020/12/03 10:35:46;;;;;;;61.95;38.65;;;;;;;0.24;74.44;100358.63;1580184;87;25934;-79
2020/12/03 10:38:31;;;;;;;69.40;38.95;;;;;;;0.27;74.40;100355.03;1579627;88;26388;-78
2020/12/03 10:40:56;;;;;;;67.47;40.23;;;;;;;0.34;74.46;100358.87;1579194;88;25435;-79
2020/12/03 10:43:31;;;;;;;63.87;42.78;;;;;;;0.33;74.31;100351.63;1589461;88;26231;-79
2020/12/03 10:46:03;;;;;;;67.50;41.42;;;;;;;0.38;74.11;100353.88;1581525;88;25989;-79
2020/12/03 10:48:36;;;;;;;75.17;44.33;;;;;;;0.35;73.91;100347.19;1579897;88;25797;-79
2020/12/03 10:51:07;;;;;;;77.67;42.58;;;;;;;0.34;73.93;100349.41;1580507;88;25934;-78
2020/12/03 10:53:35;;;;;;;74.35;44.05;;;;;;;0.34;73.90;100348.59;1582159;88;25734;-79
2020/12/03 10:56:08;;;;;;;77.35;43.05;;;;;;;0.38;74.04;100347.45;1582983;88;25642;-79
2020/12/03 10:59:18;;;;;;;78.37;44.75;;;;;;;0.44;73.92;100334.22;1582350;88;25712;-79
2020/12/03 11:01:37;;;;;;;83.42;47.45;;;;;;;0.45;73.90;100328.14;1597964;85;25959;-79
2020/12/03 11:04:10;;;;;;;82.55;44.90;;;;;;;0.49;73.74;100326.17;1659558;84;25573;-79
2020/12/03 11:06:37;;;;;;;77.55;43.52;;;;;;;0.52;73.62;100320.83;1659033;84;25442;-78
2020/12/03 11:09:05;;;;;;;78.62;46.58;;;;;;;0.47;73.35;100313.44;1655209;84;25769;-79
2020/12/03 11:11:36;;;;;;;83.82;48.17;;;;;;;0.50;73.70;100309.84;1656579;84;26300;-79
2020/12/03 11:14:10;;;;;;;76.45;43.70;;;;;;;0.55;73.60;100315.04;1659107;83;25855;-79
2020/12/03 11:16:56;;;;;;;78.78;46.70;;;;;;;0.56;73.53;100314.11;1659306;84;26544;-79
2020/12/03 11:19:25;;;;;;;67.62;41.23;;;;;;;0.64;73.80;100307.98;1657894;84;25943;-78
2020/12/03 11:22:18;;;;;;;80.95;46.00;;;;;;;0.75;73.65;100303.88;1651965;84;25804;-78
2020/12/03 11:24:51;;;;;;;75.32;44.98;;;;;;;0.83;73.73;100299.04;1607091;87;26022;-79
2020/12/03 11:27:19;;;;;;;66.40;41.08;;;;;;;0.84;73.34;100294.24;1598520;88;25951;-79
2020/12/03 11:29:47;;;;;;;74.10;44.75;;;;;;;0.88;73.47;100286.22;1598286;88;25956;-79
2020/12/03 11:32:26;;;;;;;69.85;42.20;;;;;;;0.89;73.34;100285.28;1599636;88;25913;-78
2020/12/03 11:34:55;;;;;;;65.10;39.57;;;;;;;0.99;73.44;100281.63;1600590;88;25667;-79
2020/12/03 11:37:26;;;;;;;59.77;35.70;;;;;;;1.08;73.37;100286.60;1599673;88;25753;-78
2020/12/03 11:40:07;;;;;;;59.53;38.15;;;;;;;1.13;73.21;100285.00;1586671;88;25673;-78
2020/12/03 11:42:45;;;;;;;59.67;37.15;;;;;;;1.19;73.27;100283.28;1611380;87;26348;-78
2020/12/03 11:45:50;;;;;;;54.67;32.75;;;;;;;1.23;73.03;100283.45;1611193;87;26366;-78
2020/12/03 11:50:18;;;;;;;51.65;32.90;;;;;;;1.11;72.71;100274.33;1590549;87;26573;-79
2020/12/03 11:52:45;;;;;;;53.28;33.65;;;;;;;1.16;72.95;100270.63;1612458;87;25787;-78
2020/12/03 11:55:21;;;;;;;63.30;34.18;;;;;;;1.17;72.81;100261.50;1611395;87;25673;-78
2020/12/03 11:57:47;;;;;;;48.58;31.20;;;;;;;1.18;72.84;100263.16;1612426;87;25656;-79
2020/12/03 12:00:20;;;;;;;55.00;33.23;;;;;;;1.18;72.67;100257.20;1632518;84;25542;-78